sensor_id;sensor_type;location;lat;lon;timestamp;temperature;humidity
26599;DHT22;14240;51.064;16.612;2022-07-03T00:01:33;16.00;99.90
26599;DHT22;14240;51.064;16.612;2022-07-03T00:03:59;16.00;99.90
26599;DHT22;14240;51.064;16.612;2022-07-03T00:06:28;16.00;99.90
26599;DHT22;14240;51.064;16.612;2022-07-03T00:08:57;16.00;99.90
26599;DHT22;14240;51.064;16.612;2022-07-03T00:11:23;15.90;99.90
26599;DHT22;14240;51.064;16.612;2022-07-03T00:13:49;15.90;99.90
26599;DHT22;14240;51.064;16.612;2022-07-03T00:16:15;15.90;99.90
26599;DHT22;14240;51.064;16.612;2022-07-03T00:18:40;15.90;99.90
26599;DHT22;14240;51.064;16.612;2022-07-03T00:21:08;15.80;99.90
26599;DHT22;14240;51.064;16.612;2022-07-03T00:23:45;15.80;99.90
26599;DHT22;14240;51.064;16.612;2022-07-03T00:26:13;15.90;99.90
26599;DHT22;14240;51.064;16.612;2022-07-03T00:28:40;15.80;99.90
26599;DHT22;14240;51.064;16.612;2022-07-03T00:31:07;15.80;99.90
26599;DHT22;14240;51.064;16.612;2022-07-03T00:33:33;15.80;99.90
26599;DHT22;14240;51.064;16.612;2022-07-03T00:36:00;15.70;99.90
26599;DHT22;14240;51.064;16.612;2022-07-03T00:38:26;15.70;99.90
26599;DHT22;14240;51.064;16.612;2022-07-03T00:40:52;15.70;99.90
26599;DHT22;14240;51.064;16.612;2022-07-03T00:43:18;15.60;99.90
26599;DHT22;14240;51.064;16.612;2022-07-03T00:45:48;15.60;99.90
26599;DHT22;14240;51.064;16.612;2022-07-03T00:48:16;15.60;99.90
26599;DHT22;14240;51.064;16.612;2022-07-03T00:50:46;15.60;99.90
26599;DHT22;14240;51.064;16.612;2022-07-03T00:53:13;15.50;99.90
26599;DHT22;14240;51.064;16.612;2022-07-03T00:55:45;15.50;99.90
26599;DHT22;14240;51.064;16.612;2022-07-03T00:58:15;15.50;99.90
26599;DHT22;14240;51.064;16.612;2022-07-03T01:00:43;15.40;99.90
26599;DHT22;14240;51.064;16.612;2022-07-03T01:03:15;15.40;99.90
26599;DHT22;14240;51.064;16.612;2022-07-03T01:05:55;15.40;99.90
26599;DHT22;14240;51.064;16.612;2022-07-03T01:08:58;15.30;99.90
26599;DHT22;14240;51.064;16.612;2022-07-03T01:11:38;15.30;99.90
26599;DHT22;14240;51.064;16.612;2022-07-03T01:17:05;15.20;99.90
26599;DHT22;14240;51.064;16.612;2022-07-03T01:19:40;15.10;99.90
26599;DHT22;14240;51.064;16.612;2022-07-03T01:25:25;15.10;99.90
26599;DHT22;14240;51.064;16.612;2022-07-03T01:30:44;15.00;99.90
26599;DHT22;14240;51.064;16.612;2022-07-03T01:35:42;15.00;99.90
26599;DHT22;14240;51.064;16.612;2022-07-03T01:38:13;15.00;99.90
26599;DHT22;14240;51.064;16.612;2022-07-03T01:40:40;15.00;99.90
26599;DHT22;14240;51.064;16.612;2022-07-03T01:43:09;15.00;99.90
26599;DHT22;14240;51.064;16.612;2022-07-03T01:45:43;14.90;99.90
26599;DHT22;14240;51.064;16.612;2022-07-03T01:48:11;14.90;99.90
26599;DHT22;14240;51.064;16.612;2022-07-03T01:50:37;14.90;99.90
26599;DHT22;14240;51.064;16.612;2022-07-03T01:53:06;14.90;99.90
26599;DHT22;14240;51.064;16.612;2022-07-03T01:55:33;14.80;99.90
26599;DHT22;14240;51.064;16.612;2022-07-03T01:58:00;14.80;99.90
26599;DHT22;14240;51.064;16.612;2022-07-03T02:00:27;14.90;99.90
26599;DHT22;14240;51.064;16.612;2022-07-03T02:03:02;14.80;99.90
26599;DHT22;14240;51.064;16.612;2022-07-03T02:05:34;14.80;99.90
26599;DHT22;14240;51.064;16.612;2022-07-03T02:08:26;14.70;99.90
26599;DHT22;14240;51.064;16.612;2022-07-03T02:11:14;14.70;99.90
26599;DHT22;14240;51.064;16.612;2022-07-03T02:14:10;14.70;99.90
26599;DHT22;14240;51.064;16.612;2022-07-03T02:17:03;14.70;99.90
26599;DHT22;14240;51.064;16.612;2022-07-03T02:22:34;14.70;99.90
26599;DHT22;14240;51.064;16.612;2022-07-03T02:25:04;14.60;99.90
26599;DHT22;14240;51.064;16.612;2022-07-03T02:27:42;14.60;99.90
26599;DHT22;14240;51.064;16.612;2022-07-03T02:30:11;14.60;99.90
26599;DHT22;14240;51.064;16.612;2022-07-03T02:32:58;14.60;99.90
26599;DHT22;14240;51.064;16.612;2022-07-03T02:43:19;14.60;99.90
26599;DHT22;14240;51.064;16.612;2022-07-03T02:46:10;14.60;99.90
26599;DHT22;14240;51.064;16.612;2022-07-03T02:54:46;14.60;99.90
26599;DHT22;14240;51.064;16.612;2022-07-03T02:57:16;14.50;99.90
26599;DHT22;14240;51.064;16.612;2022-07-03T03:00:01;14.60;99.90
26599;DHT22;14240;51.064;16.612;2022-07-03T03:02:55;14.60;99.90
26599;DHT22;14240;51.064;16.612;2022-07-03T03:10:38;14.60;99.90
26599;DHT22;14240;51.064;16.612;2022-07-03T03:13:08;14.60;99.90
26599;DHT22;14240;51.064;16.612;2022-07-03T03:15:36;14.60;99.90
26599;DHT22;14240;51.064;16.612;2022-07-03T03:18:07;14.50;99.90
26599;DHT22;14240;51.064;16.612;2022-07-03T03:20:37;14.50;99.90
26599;DHT22;14240;51.064;16.612;2022-07-03T03:25:52;14.60;99.90
26599;DHT22;14240;51.064;16.612;2022-07-03T03:28:18;14.70;99.90
26599;DHT22;14240;51.064;16.612;2022-07-03T03:30:44;14.80;99.90
26599;DHT22;14240;51.064;16.612;2022-07-03T03:33:10;14.80;99.90
26599;DHT22;14240;51.064;16.612;2022-07-03T03:35:38;14.90;99.90
26599;DHT22;14240;51.064;16.612;2022-07-03T03:38:04;14.90;99.90
26599;DHT22;14240;51.064;16.612;2022-07-03T03:40:31;14.90;99.90
26599;DHT22;14240;51.064;16.612;2022-07-03T03:42:57;14.80;99.90
26599;DHT22;14240;51.064;16.612;2022-07-03T03:45:23;14.80;99.90
26599;DHT22;14240;51.064;16.612;2022-07-03T03:47:49;14.90;99.90
26599;DHT22;14240;51.064;16.612;2022-07-03T03:50:14;14.90;99.90
26599;DHT22;14240;51.064;16.612;2022-07-03T03:52:40;15.00;99.90
26599;DHT22;14240;51.064;16.612;2022-07-03T03:55:07;15.00;99.90
26599;DHT22;14240;51.064;16.612;2022-07-03T03:57:35;15.10;99.90
26599;DHT22;14240;51.064;16.612;2022-07-03T04:00:00;15.20;99.90
26599;DHT22;14240;51.064;16.612;2022-07-03T04:02:26;15.20;99.90
26599;DHT22;14240;51.064;16.612;2022-07-03T04:04:52;15.20;99.90
26599;DHT22;14240;51.064;16.612;2022-07-03T04:07:18;15.20;99.90
26599;DHT22;14240;51.064;16.612;2022-07-03T04:09:43;15.20;99.90
26599;DHT22;14240;51.064;16.612;2022-07-03T04:12:10;15.20;99.90
26599;DHT22;14240;51.064;16.612;2022-07-03T04:14:36;15.20;99.90
26599;DHT22;14240;51.064;16.612;2022-07-03T04:17:01;15.30;99.90
26599;DHT22;14240;51.064;16.612;2022-07-03T04:19:27;15.30;99.90
26599;DHT22;14240;51.064;16.612;2022-07-03T04:21:53;15.30;99.90
26599;DHT22;14240;51.064;16.612;2022-07-03T04:24:19;15.30;99.90
26599;DHT22;14240;51.064;16.612;2022-07-03T04:26:44;15.30;99.90
26599;DHT22;14240;51.064;16.612;2022-07-03T04:29:10;15.40;99.90
26599;DHT22;14240;51.064;16.612;2022-07-03T04:31:36;15.40;99.90
26599;DHT22;14240;51.064;16.612;2022-07-03T04:34:02;15.40;99.90
26599;DHT22;14240;51.064;16.612;2022-07-03T04:36:27;15.40;99.90
26599;DHT22;14240;51.064;16.612;2022-07-03T04:38:54;15.50;99.90
26599;DHT22;14240;51.064;16.612;2022-07-03T04:41:20;15.50;99.90
26599;DHT22;14240;51.064;16.612;2022-07-03T04:43:46;15.60;99.90
26599;DHT22;14240;51.064;16.612;2022-07-03T04:46:11;15.60;99.90
26599;DHT22;14240;51.064;16.612;2022-07-03T04:48:37;15.70;99.90
26599;DHT22;14240;51.064;16.612;2022-07-03T04:51:03;15.80;99.90
26599;DHT22;14240;51.064;16.612;2022-07-03T04:53:28;15.90;99.90
26599;DHT22;14240;51.064;16.612;2022-07-03T04:55:54;16.00;99.90
26599;DHT22;14240;51.064;16.612;2022-07-03T04:58:19;16.10;99.90
26599;DHT22;14240;51.064;16.612;2022-07-03T05:00:45;16.20;99.90
26599;DHT22;14240;51.064;16.612;2022-07-03T05:03:12;16.30;99.90
26599;DHT22;14240;51.064;16.612;2022-07-03T05:05:38;16.40;99.90
26599;DHT22;14240;51.064;16.612;2022-07-03T05:08:04;16.50;99.90
26599;DHT22;14240;51.064;16.612;2022-07-03T05:10:30;16.60;99.90
26599;DHT22;14240;51.064;16.612;2022-07-03T05:12:56;16.70;99.90
26599;DHT22;14240;51.064;16.612;2022-07-03T05:15:21;16.70;99.90
26599;DHT22;14240;51.064;16.612;2022-07-03T05:17:48;16.80;99.90
26599;DHT22;14240;51.064;16.612;2022-07-03T05:20:14;16.80;99.90
26599;DHT22;14240;51.064;16.612;2022-07-03T05:22:59;16.90;99.90
26599;DHT22;14240;51.064;16.612;2022-07-03T05:25:26;17.00;99.90
26599;DHT22;14240;51.064;16.612;2022-07-03T05:27:52;17.10;99.90
26599;DHT22;14240;51.064;16.612;2022-07-03T05:30:20;17.20;99.90
26599;DHT22;14240;51.064;16.612;2022-07-03T05:32:46;17.30;99.90
26599;DHT22;14240;51.064;16.612;2022-07-03T05:35:11;17.40;99.90
26599;DHT22;14240;51.064;16.612;2022-07-03T05:37:37;17.50;99.90
26599;DHT22;14240;51.064;16.612;2022-07-03T05:40:04;17.60;99.90
26599;DHT22;14240;51.064;16.612;2022-07-03T05:42:30;17.80;99.90
26599;DHT22;14240;51.064;16.612;2022-07-03T05:44:55;18.00;99.90
26599;DHT22;14240;51.064;16.612;2022-07-03T05:47:21;18.20;99.90
26599;DHT22;14240;51.064;16.612;2022-07-03T05:49:46;18.30;99.90
26599;DHT22;14240;51.064;16.612;2022-07-03T05:52:13;18.50;99.90
26599;DHT22;14240;51.064;16.612;2022-07-03T05:54:39;18.60;99.90
26599;DHT22;14240;51.064;16.612;2022-07-03T05:57:05;18.80;99.90
26599;DHT22;14240;51.064;16.612;2022-07-03T05:59:30;18.90;99.90
26599;DHT22;14240;51.064;16.612;2022-07-03T06:01:56;19.20;99.90
26599;DHT22;14240;51.064;16.612;2022-07-03T06:04:22;19.30;99.90
26599;DHT22;14240;51.064;16.612;2022-07-03T06:06:47;19.40;99.90
26599;DHT22;14240;51.064;16.612;2022-07-03T06:09:13;19.50;99.90
26599;DHT22;14240;51.064;16.612;2022-07-03T06:11:39;19.50;99.90
26599;DHT22;14240;51.064;16.612;2022-07-03T06:14:04;19.60;99.90
26599;DHT22;14240;51.064;16.612;2022-07-03T06:16:30;19.70;99.90
26599;DHT22;14240;51.064;16.612;2022-07-03T06:18:56;19.80;99.90
26599;DHT22;14240;51.064;16.612;2022-07-03T06:21:21;20.00;99.90
26599;DHT22;14240;51.064;16.612;2022-07-03T06:23:47;20.00;99.90
26599;DHT22;14240;51.064;16.612;2022-07-03T06:26:14;20.10;99.90
26599;DHT22;14240;51.064;16.612;2022-07-03T06:28:40;20.20;99.90
26599;DHT22;14240;51.064;16.612;2022-07-03T06:31:05;20.20;99.90
26599;DHT22;14240;51.064;16.612;2022-07-03T06:33:31;20.30;99.90
26599;DHT22;14240;51.064;16.612;2022-07-03T06:35:57;20.40;99.90
26599;DHT22;14240;51.064;16.612;2022-07-03T06:38:22;20.40;99.90
26599;DHT22;14240;51.064;16.612;2022-07-03T06:40:48;20.50;99.90
26599;DHT22;14240;51.064;16.612;2022-07-03T06:43:14;20.60;99.90
26599;DHT22;14240;51.064;16.612;2022-07-03T06:45:40;20.70;99.90
26599;DHT22;14240;51.064;16.612;2022-07-03T06:48:05;20.80;99.90
26599;DHT22;14240;51.064;16.612;2022-07-03T06:50:31;21.00;99.90
26599;DHT22;14240;51.064;16.612;2022-07-03T06:52:56;21.00;99.90
26599;DHT22;14240;51.064;16.612;2022-07-03T06:55:22;21.10;99.90
26599;DHT22;14240;51.064;16.612;2022-07-03T06:57:48;21.20;99.90
26599;DHT22;14240;51.064;16.612;2022-07-03T07:00:13;21.40;99.90
26599;DHT22;14240;51.064;16.612;2022-07-03T07:02:39;21.50;99.90
26599;DHT22;14240;51.064;16.612;2022-07-03T07:05:05;21.60;99.90
26599;DHT22;14240;51.064;16.612;2022-07-03T07:07:31;21.70;99.90
26599;DHT22;14240;51.064;16.612;2022-07-03T07:09:56;21.80;99.90
26599;DHT22;14240;51.064;16.612;2022-07-03T07:12:22;21.90;99.90
26599;DHT22;14240;51.064;16.612;2022-07-03T07:14:48;22.00;99.90
26599;DHT22;14240;51.064;16.612;2022-07-03T07:17:13;22.10;99.90
26599;DHT22;14240;51.064;16.612;2022-07-03T07:19:39;22.10;99.90
26599;DHT22;14240;51.064;16.612;2022-07-03T07:22:05;22.30;99.70
26599;DHT22;14240;51.064;16.612;2022-07-03T07:24:30;22.30;99.70
26599;DHT22;14240;51.064;16.612;2022-07-03T07:26:56;22.40;99.30
26599;DHT22;14240;51.064;16.612;2022-07-03T07:29:21;22.50;99.30
26599;DHT22;14240;51.064;16.612;2022-07-03T07:31:47;22.60;99.10
26599;DHT22;14240;51.064;16.612;2022-07-03T07:34:13;22.70;99.00
26599;DHT22;14240;51.064;16.612;2022-07-03T07:36:39;22.80;99.30
26599;DHT22;14240;51.064;16.612;2022-07-03T07:39:04;22.90;98.80
26599;DHT22;14240;51.064;16.612;2022-07-03T07:41:30;23.10;98.40
26599;DHT22;14240;51.064;16.612;2022-07-03T07:43:56;23.10;97.60
26599;DHT22;14240;51.064;16.612;2022-07-03T07:46:22;23.10;97.40
26599;DHT22;14240;51.064;16.612;2022-07-03T07:48:47;23.10;97.40
26599;DHT22;14240;51.064;16.612;2022-07-03T07:51:13;23.10;97.30
26599;DHT22;14240;51.064;16.612;2022-07-03T07:53:38;23.20;97.40
26599;DHT22;14240;51.064;16.612;2022-07-03T07:56:04;23.20;96.90
26599;DHT22;14240;51.064;16.612;2022-07-03T07:58:30;23.30;96.80
26599;DHT22;14240;51.064;16.612;2022-07-03T08:00:56;23.40;96.70
26599;DHT22;14240;51.064;16.612;2022-07-03T08:03:40;23.50;96.40
26599;DHT22;14240;51.064;16.612;2022-07-03T08:06:24;23.50;95.80
26599;DHT22;14240;51.064;16.612;2022-07-03T08:08:49;23.60;95.80
26599;DHT22;14240;51.064;16.612;2022-07-03T08:11:15;23.70;95.70
26599;DHT22;14240;51.064;16.612;2022-07-03T08:13:41;23.80;95.50
26599;DHT22;14240;51.064;16.612;2022-07-03T08:16:06;23.90;95.30
26599;DHT22;14240;51.064;16.612;2022-07-03T08:18:32;23.90;94.70
26599;DHT22;14240;51.064;16.612;2022-07-03T08:20:58;24.00;94.50
26599;DHT22;14240;51.064;16.612;2022-07-03T08:23:23;24.10;94.50
26599;DHT22;14240;51.064;16.612;2022-07-03T08:25:49;24.20;94.00
26599;DHT22;14240;51.064;16.612;2022-07-03T08:28:15;24.20;93.10
26599;DHT22;14240;51.064;16.612;2022-07-03T08:30:40;24.30;93.40
26599;DHT22;14240;51.064;16.612;2022-07-03T08:33:06;24.40;93.10
26599;DHT22;14240;51.064;16.612;2022-07-03T08:35:32;24.50;93.10
26599;DHT22;14240;51.064;16.612;2022-07-03T08:37:57;24.60;93.00
26599;DHT22;14240;51.064;16.612;2022-07-03T08:40:23;24.70;92.40
26599;DHT22;14240;51.064;16.612;2022-07-03T08:42:57;24.70;92.10
26599;DHT22;14240;51.064;16.612;2022-07-03T08:45:24;24.60;92.00
26599;DHT22;14240;51.064;16.612;2022-07-03T08:47:53;24.60;92.10
26599;DHT22;14240;51.064;16.612;2022-07-03T08:50:19;24.60;92.20
26599;DHT22;14240;51.064;16.612;2022-07-03T08:52:46;24.50;92.20
26599;DHT22;14240;51.064;16.612;2022-07-03T08:55:13;24.40;92.50
26599;DHT22;14240;51.064;16.612;2022-07-03T08:57:40;24.40;92.30
26599;DHT22;14240;51.064;16.612;2022-07-03T09:00:09;24.30;92.00
26599;DHT22;14240;51.064;16.612;2022-07-03T09:02:35;24.30;92.40
26599;DHT22;14240;51.064;16.612;2022-07-03T09:05:02;24.30;92.30
26599;DHT22;14240;51.064;16.612;2022-07-03T09:07:35;24.40;92.10
26599;DHT22;14240;51.064;16.612;2022-07-03T09:10:03;24.50;91.70
26599;DHT22;14240;51.064;16.612;2022-07-03T09:12:30;24.60;91.60
26599;DHT22;14240;51.064;16.612;2022-07-03T09:14:55;24.70;91.70
26599;DHT22;14240;51.064;16.612;2022-07-03T09:17:21;24.70;91.00
26599;DHT22;14240;51.064;16.612;2022-07-03T09:19:48;24.80;90.50
26599;DHT22;14240;51.064;16.612;2022-07-03T09:22:25;24.80;90.60
26599;DHT22;14240;51.064;16.612;2022-07-03T09:27:32;24.90;90.00
26599;DHT22;14240;51.064;16.612;2022-07-03T09:30:06;25.00;90.10
26599;DHT22;14240;51.064;16.612;2022-07-03T09:32:41;25.00;89.40
26599;DHT22;14240;51.064;16.612;2022-07-03T09:35:19;25.00;88.60
26599;DHT22;14240;51.064;16.612;2022-07-03T09:38:02;24.90;88.20
26599;DHT22;14240;51.064;16.612;2022-07-03T09:43:25;24.90;90.00
26599;DHT22;14240;51.064;16.612;2022-07-03T09:45:55;24.90;89.30
26599;DHT22;14240;51.064;16.612;2022-07-03T09:56:17;25.10;88.00
26599;DHT22;14240;51.064;16.612;2022-07-03T09:59:10;25.20;88.40
26599;DHT22;14240;51.064;16.612;2022-07-03T10:01:41;25.20;88.30
26599;DHT22;14240;51.064;16.612;2022-07-03T10:04:20;25.30;87.80
26599;DHT22;14240;51.064;16.612;2022-07-03T10:06:56;25.40;87.40
26599;DHT22;14240;51.064;16.612;2022-07-03T10:09:26;25.50;86.50
26599;DHT22;14240;51.064;16.612;2022-07-03T10:11:53;25.60;86.60
26599;DHT22;14240;51.064;16.612;2022-07-03T10:14:21;25.70;87.00
26599;DHT22;14240;51.064;16.612;2022-07-03T10:16:48;25.70;85.90
26599;DHT22;14240;51.064;16.612;2022-07-03T10:19:22;25.80;85.20
26599;DHT22;14240;51.064;16.612;2022-07-03T10:22:01;25.80;84.60
26599;DHT22;14240;51.064;16.612;2022-07-03T10:24:31;25.80;84.10
26599;DHT22;14240;51.064;16.612;2022-07-03T10:26:58;25.80;83.50
26599;DHT22;14240;51.064;16.612;2022-07-03T10:29:25;25.80;82.50
26599;DHT22;14240;51.064;16.612;2022-07-03T10:31:51;25.70;82.70
26599;DHT22;14240;51.064;16.612;2022-07-03T10:34:22;25.70;83.00
26599;DHT22;14240;51.064;16.612;2022-07-03T10:37:03;25.70;82.40
26599;DHT22;14240;51.064;16.612;2022-07-03T10:39:32;25.90;83.70
26599;DHT22;14240;51.064;16.612;2022-07-03T10:42:03;25.90;83.80
26599;DHT22;14240;51.064;16.612;2022-07-03T10:45:07;26.10;82.90
26599;DHT22;14240;51.064;16.612;2022-07-03T10:47:51;26.10;81.80
26599;DHT22;14240;51.064;16.612;2022-07-03T10:50:20;26.20;82.60
26599;DHT22;14240;51.064;16.612;2022-07-03T10:52:47;26.20;81.30
26599;DHT22;14240;51.064;16.612;2022-07-03T10:55:14;26.30;80.20
26599;DHT22;14240;51.064;16.612;2022-07-03T10:57:42;26.40;80.10
26599;DHT22;14240;51.064;16.612;2022-07-03T11:02:40;26.40;78.40
26599;DHT22;14240;51.064;16.612;2022-07-03T11:05:23;26.40;78.70
26599;DHT22;14240;51.064;16.612;2022-07-03T11:12:58;26.50;77.70
26599;DHT22;14240;51.064;16.612;2022-07-03T11:18:08;26.50;77.60
26599;DHT22;14240;51.064;16.612;2022-07-03T11:36:30;26.70;77.50
26599;DHT22;14240;51.064;16.612;2022-07-03T11:41:30;26.70;76.80
26599;DHT22;14240;51.064;16.612;2022-07-03T11:43:58;26.80;76.10
26599;DHT22;14240;51.064;16.612;2022-07-03T11:46:25;26.80;75.90
26599;DHT22;14240;51.064;16.612;2022-07-03T11:51:29;26.80;76.40
26599;DHT22;14240;51.064;16.612;2022-07-03T11:53:55;26.80;76.40
26599;DHT22;14240;51.064;16.612;2022-07-03T11:56:21;26.80;74.50
26599;DHT22;14240;51.064;16.612;2022-07-03T11:58:57;26.90;74.40
26599;DHT22;14240;51.064;16.612;2022-07-03T12:03:52;26.90;73.50
26599;DHT22;14240;51.064;16.612;2022-07-03T12:06:19;27.00;74.20
26599;DHT22;14240;51.064;16.612;2022-07-03T12:08:45;27.00;75.40
26599;DHT22;14240;51.064;16.612;2022-07-03T12:11:15;27.10;74.80
26599;DHT22;14240;51.064;16.612;2022-07-03T12:13:42;27.10;75.80
26599;DHT22;14240;51.064;16.612;2022-07-03T12:16:12;27.20;75.30
26599;DHT22;14240;51.064;16.612;2022-07-03T12:18:51;27.30;74.50
26599;DHT22;14240;51.064;16.612;2022-07-03T12:21:18;27.30;74.00
26599;DHT22;14240;51.064;16.612;2022-07-03T12:23:50;27.40;73.30
26599;DHT22;14240;51.064;16.612;2022-07-03T12:26:34;27.30;72.40
26599;DHT22;14240;51.064;16.612;2022-07-03T12:29:18;27.20;72.00
26599;DHT22;14240;51.064;16.612;2022-07-03T12:31:46;27.10;72.20
26599;DHT22;14240;51.064;16.612;2022-07-03T12:34:13;27.10;73.30
26599;DHT22;14240;51.064;16.612;2022-07-03T12:36:40;27.10;72.40
26599;DHT22;14240;51.064;16.612;2022-07-03T12:39:06;27.10;71.80
26599;DHT22;14240;51.064;16.612;2022-07-03T12:41:33;27.10;72.70
26599;DHT22;14240;51.064;16.612;2022-07-03T12:44:00;27.10;72.60
26599;DHT22;14240;51.064;16.612;2022-07-03T12:48:59;27.20;72.50
26599;DHT22;14240;51.064;16.612;2022-07-03T12:54:11;27.20;72.00
26599;DHT22;14240;51.064;16.612;2022-07-03T12:56:37;27.20;72.10
26599;DHT22;14240;51.064;16.612;2022-07-03T12:59:03;27.30;72.10
26599;DHT22;14240;51.064;16.612;2022-07-03T13:02:04;27.30;72.90
26599;DHT22;14240;51.064;16.612;2022-07-03T13:04:35;27.30;71.60
26599;DHT22;14240;51.064;16.612;2022-07-03T13:07:07;27.30;71.20
26599;DHT22;14240;51.064;16.612;2022-07-03T13:09:36;27.40;71.30
26599;DHT22;14240;51.064;16.612;2022-07-03T13:12:03;27.40;70.50
26599;DHT22;14240;51.064;16.612;2022-07-03T13:14:29;27.40;70.90
26599;DHT22;14240;51.064;16.612;2022-07-03T13:16:56;27.40;70.30
26599;DHT22;14240;51.064;16.612;2022-07-03T13:19:24;27.30;70.10
26599;DHT22;14240;51.064;16.612;2022-07-03T13:21:52;27.30;70.30
26599;DHT22;14240;51.064;16.612;2022-07-03T13:24:19;27.20;70.70
26599;DHT22;14240;51.064;16.612;2022-07-03T13:26:47;27.20;71.40
26599;DHT22;14240;51.064;16.612;2022-07-03T13:29:13;27.30;70.60
26599;DHT22;14240;51.064;16.612;2022-07-03T13:31:38;27.20;70.50
26599;DHT22;14240;51.064;16.612;2022-07-03T13:34:04;27.30;70.10
26599;DHT22;14240;51.064;16.612;2022-07-03T13:36:31;27.30;69.20
26599;DHT22;14240;51.064;16.612;2022-07-03T13:38:57;27.40;69.70
26599;DHT22;14240;51.064;16.612;2022-07-03T13:41:23;27.40;69.40
26599;DHT22;14240;51.064;16.612;2022-07-03T13:43:50;27.50;69.10
26599;DHT22;14240;51.064;16.612;2022-07-03T13:46:18;27.50;70.10
26599;DHT22;14240;51.064;16.612;2022-07-03T13:48:44;27.60;70.30
26599;DHT22;14240;51.064;16.612;2022-07-03T13:51:09;27.60;70.90
26599;DHT22;14240;51.064;16.612;2022-07-03T13:53:35;27.60;69.20
26599;DHT22;14240;51.064;16.612;2022-07-03T13:56:02;27.70;71.10
26599;DHT22;14240;51.064;16.612;2022-07-03T13:58:28;27.80;70.30
26599;DHT22;14240;51.064;16.612;2022-07-03T14:00:54;27.90;69.00
26599;DHT22;14240;51.064;16.612;2022-07-03T14:03:20;27.90;68.20
26599;DHT22;14240;51.064;16.612;2022-07-03T14:05:46;27.90;68.60
26599;DHT22;14240;51.064;16.612;2022-07-03T14:08:13;27.90;68.60
26599;DHT22;14240;51.064;16.612;2022-07-03T14:10:39;27.90;69.30
26599;DHT22;14240;51.064;16.612;2022-07-03T14:13:05;27.90;68.80
26599;DHT22;14240;51.064;16.612;2022-07-03T14:15:33;28.00;69.30
26599;DHT22;14240;51.064;16.612;2022-07-03T14:17:58;28.00;67.90
26599;DHT22;14240;51.064;16.612;2022-07-03T14:20:26;28.00;68.30
26599;DHT22;14240;51.064;16.612;2022-07-03T14:22:51;28.00;67.30
26599;DHT22;14240;51.064;16.612;2022-07-03T14:25:17;28.00;67.20
26599;DHT22;14240;51.064;16.612;2022-07-03T14:27:43;27.80;67.00
26599;DHT22;14240;51.064;16.612;2022-07-03T14:30:27;28.00;68.40
26599;DHT22;14240;51.064;16.612;2022-07-03T14:33:11;28.00;69.20
26599;DHT22;14240;51.064;16.612;2022-07-03T14:35:37;28.00;68.90
26599;DHT22;14240;51.064;16.612;2022-07-03T14:38:03;28.00;67.90
26599;DHT22;14240;51.064;16.612;2022-07-03T14:40:29;28.00;68.30
26599;DHT22;14240;51.064;16.612;2022-07-03T14:42:55;28.00;67.50
26599;DHT22;14240;51.064;16.612;2022-07-03T14:45:22;28.00;67.20
26599;DHT22;14240;51.064;16.612;2022-07-03T14:47:48;28.00;67.60
26599;DHT22;14240;51.064;16.612;2022-07-03T14:50:14;28.00;67.50
26599;DHT22;14240;51.064;16.612;2022-07-03T14:52:40;28.00;66.80
26599;DHT22;14240;51.064;16.612;2022-07-03T14:55:05;28.00;67.10
26599;DHT22;14240;51.064;16.612;2022-07-03T15:00:08;28.00;66.60
26599;DHT22;14240;51.064;16.612;2022-07-03T15:05:19;28.00;66.70
26599;DHT22;14240;51.064;16.612;2022-07-03T15:10:14;28.00;67.60
26599;DHT22;14240;51.064;16.612;2022-07-03T15:12:47;28.00;67.30
26599;DHT22;14240;51.064;16.612;2022-07-03T15:15:15;28.00;67.90
26599;DHT22;14240;51.064;16.612;2022-07-03T15:17:42;28.00;67.30
26599;DHT22;14240;51.064;16.612;2022-07-03T15:20:12;28.00;67.10
26599;DHT22;14240;51.064;16.612;2022-07-03T15:22:40;28.00;68.50
26599;DHT22;14240;51.064;16.612;2022-07-03T15:25:10;28.00;67.50
26599;DHT22;14240;51.064;16.612;2022-07-03T15:27:37;28.00;67.30
26599;DHT22;14240;51.064;16.612;2022-07-03T15:30:04;28.00;67.30
26599;DHT22;14240;51.064;16.612;2022-07-03T15:32:29;27.90;67.10
26599;DHT22;14240;51.064;16.612;2022-07-03T15:34:55;27.90;66.10
26599;DHT22;14240;51.064;16.612;2022-07-03T15:40:30;27.80;66.90
26599;DHT22;14240;51.064;16.612;2022-07-03T15:46:05;27.80;66.70
26599;DHT22;14240;51.064;16.612;2022-07-03T15:49:28;27.80;67.20
26599;DHT22;14240;51.064;16.612;2022-07-03T15:51:51;27.80;67.70
26599;DHT22;14240;51.064;16.612;2022-07-03T15:54:40;27.70;67.60
26599;DHT22;14240;51.064;16.612;2022-07-03T16:00:06;27.70;67.10
26599;DHT22;14240;51.064;16.612;2022-07-03T16:05:24;27.60;68.20
26599;DHT22;14240;51.064;16.612;2022-07-03T16:07:52;27.60;67.80
26599;DHT22;14240;51.064;16.612;2022-07-03T16:10:18;27.60;68.00
26599;DHT22;14240;51.064;16.612;2022-07-03T16:12:46;27.60;68.00
26599;DHT22;14240;51.064;16.612;2022-07-03T16:15:11;27.60;67.80
26599;DHT22;14240;51.064;16.612;2022-07-03T16:17:37;27.60;67.70
26599;DHT22;14240;51.064;16.612;2022-07-03T16:20:04;27.50;67.60
26599;DHT22;14240;51.064;16.612;2022-07-03T16:22:34;27.50;67.80
26599;DHT22;14240;51.064;16.612;2022-07-03T16:25:02;27.50;67.90
26599;DHT22;14240;51.064;16.612;2022-07-03T16:27:28;27.50;69.30
26599;DHT22;14240;51.064;16.612;2022-07-03T16:29:54;27.40;68.60
26599;DHT22;14240;51.064;16.612;2022-07-03T16:32:33;27.40;69.00
26599;DHT22;14240;51.064;16.612;2022-07-03T16:35:16;27.40;69.00
26599;DHT22;14240;51.064;16.612;2022-07-03T16:40:17;27.30;68.70
26599;DHT22;14240;51.064;16.612;2022-07-03T16:42:45;27.30;68.70
26599;DHT22;14240;51.064;16.612;2022-07-03T16:45:12;27.20;68.60
26599;DHT22;14240;51.064;16.612;2022-07-03T16:47:46;27.20;68.30
26599;DHT22;14240;51.064;16.612;2022-07-03T16:50:15;27.10;68.80
26599;DHT22;14240;51.064;16.612;2022-07-03T16:52:47;27.10;68.90
26599;DHT22;14240;51.064;16.612;2022-07-03T16:55:14;27.10;68.80
26599;DHT22;14240;51.064;16.612;2022-07-03T16:57:51;27.10;69.30
26599;DHT22;14240;51.064;16.612;2022-07-03T17:00:29;27.10;69.40
26599;DHT22;14240;51.064;16.612;2022-07-03T17:02:56;27.00;69.60
26599;DHT22;14240;51.064;16.612;2022-07-03T17:05:24;27.00;69.80
26599;DHT22;14240;51.064;16.612;2022-07-03T17:07:52;27.00;69.50
26599;DHT22;14240;51.064;16.612;2022-07-03T17:10:21;27.00;69.60
26599;DHT22;14240;51.064;16.612;2022-07-03T17:12:56;27.00;70.00
26599;DHT22;14240;51.064;16.612;2022-07-03T17:15:23;27.00;70.00
26599;DHT22;14240;51.064;16.612;2022-07-03T17:17:55;26.90;69.60